sensor_id;sensor_type;location;lat;lon;timestamp;pressure;altitude;pressure_sealevel;temperature;humidity
8501;BME280;4288;48.484;10.024;2022-11-20T00:00:41;95001.00;;;14.99;73.20
8501;BME280;4288;48.484;10.024;2022-11-20T00:03:08;94994.84;;;14.98;73.19
8501;BME280;4288;48.484;10.024;2022-11-20T00:05:35;94994.09;;;14.98;73.15
8501;BME280;4288;48.484;10.024;2022-11-20T00:08:04;94999.47;;;14.98;73.19
8501;BME280;4288;48.484;10.024;2022-11-20T00:10:31;94994.50;;;14.96;73.20
8501;BME280;4288;48.484;10.024;2022-11-20T00:12:59;94993.78;;;14.96;73.19
8501;BME280;4288;48.484;10.024;2022-11-20T00:15:26;94993.78;;;14.96;73.19
8501;BME280;4288;48.484;10.024;2022-11-20T00:17:53;94991.09;;;14.96;73.09
8501;BME280;4288;48.484;10.024;2022-11-20T00:20:20;94988.47;;;14.92;73.24
8501;BME280;4288;48.484;10.024;2022-11-20T00:22:47;94987.72;;;14.92;73.25
8501;BME280;4288;48.484;10.024;2022-11-20T00:25:16;95001.84;;;14.96;73.25
8501;BME280;4288;48.484;10.024;2022-11-20T00:27:43;94995.38;;;14.93;73.16
8501;BME280;4288;48.484;10.024;2022-11-20T00:30:11;94998.81;;;14.94;73.18
8501;BME280;4288;48.484;10.024;2022-11-20T00:32:38;95001.50;;;14.94;73.04
8501;BME280;4288;48.484;10.024;2022-11-20T00:35:06;95003.00;;;14.95;73.10
8501;BME280;4288;48.484;10.024;2022-11-20T00:37:33;94997.28;;;14.93;73.13
8501;BME280;4288;48.484;10.024;2022-11-20T00:40:00;95002.69;;;14.93;73.13
8501;BME280;4288;48.484;10.024;2022-11-20T00:42:29;95009.97;;;14.92;73.13
8501;BME280;4288;48.484;10.024;2022-11-20T00:44:58;95004.59;;;14.92;73.14
8501;BME280;4288;48.484;10.024;2022-11-20T00:47:25;95012.69;;;14.92;73.12
8501;BME280;4288;48.484;10.024;2022-11-20T00:49:52;95015.38;;;14.92;73.14
8501;BME280;4288;48.484;10.024;2022-11-20T00:52:19;95020.00;;;14.92;73.27
8501;BME280;4288;48.484;10.024;2022-11-20T00:54:47;95023.88;;;14.91;73.13
8501;BME280;4288;48.484;10.024;2022-11-20T00:57:14;95026.56;;;14.91;73.25
8501;BME280;4288;48.484;10.024;2022-11-20T00:59:42;95031.94;;;14.91;73.21
8501;BME280;4288;48.484;10.024;2022-11-20T01:02:09;95035.81;;;14.90;73.09
8501;BME280;4288;48.484;10.024;2022-11-20T01:04:36;95041.94;;;14.90;73.18
8501;BME280;4288;48.484;10.024;2022-11-20T01:07:03;95036.97;;;14.89;73.09
8501;BME280;4288;48.484;10.024;2022-11-20T01:09:31;95038.16;;;14.88;73.11
8501;BME280;4288;48.484;10.024;2022-11-20T01:11:58;95051.63;;;14.88;73.21
8501;BME280;4288;48.484;10.024;2022-11-20T01:14:26;95048.16;;;14.87;73.08
8501;BME280;4288;48.484;10.024;2022-11-20T01:16:54;95052.34;;;14.88;73.27
8501;BME280;4288;48.484;10.024;2022-11-20T01:19:23;95053.53;;;14.87;73.05
8501;BME280;4288;48.484;10.024;2022-11-20T01:21:52;95047.06;;;14.85;73.33
8501;BME280;4288;48.484;10.024;2022-11-20T01:24:21;95048.97;;;14.84;73.17
8501;BME280;4288;48.484;10.024;2022-11-20T01:26:50;95054.72;;;14.86;73.16
8501;BME280;4288;48.484;10.024;2022-11-20T01:29:21;95052.09;;;14.83;73.32
8501;BME280;4288;48.484;10.024;2022-11-20T01:31:48;95057.81;;;14.85;72.98
8501;BME280;4288;48.484;10.024;2022-11-20T01:34:19;95056.66;;;14.86;73.16
8501;BME280;4288;48.484;10.024;2022-11-20T01:36:48;95053.63;;;14.84;73.00
8501;BME280;4288;48.484;10.024;2022-11-20T01:39:17;95056.31;;;14.84;73.16
8501;BME280;4288;48.484;10.024;2022-11-20T01:41:46;95055.97;;;14.82;73.18
8501;BME280;4288;48.484;10.024;2022-11-20T01:44:53;95053.72;;;14.80;73.08
8501;BME280;4288;48.484;10.024;2022-11-20T01:47:28;95062.84;;;14.83;73.43
8501;BME280;4288;48.484;10.024;2022-11-20T01:50:03;95054.78;;;14.83;73.20
8501;BME280;4288;48.484;10.024;2022-11-20T01:52:36;95046.38;;;14.81;73.15
8501;BME280;4288;48.484;10.024;2022-11-20T01:55:08;95050.69;;;14.78;73.09
8501;BME280;4288;48.484;10.024;2022-11-20T01:57:36;95048.72;;;14.79;73.01
8501;BME280;4288;48.484;10.024;2022-11-20T02:00:09;95047.91;;;14.82;73.15
8501;BME280;4288;48.484;10.024;2022-11-20T02:02:38;95052.94;;;14.80;73.12
8501;BME280;4288;48.484;10.024;2022-11-20T02:05:16;95048.34;;;14.80;73.00
8501;BME280;4288;48.484;10.024;2022-11-20T02:07:45;95050.25;;;14.80;73.12
8501;BME280;4288;48.484;10.024;2022-11-20T02:10:13;95044.97;;;14.76;73.29
8501;BME280;4288;48.484;10.024;2022-11-20T02:12:41;95050.69;;;14.78;73.03
8501;BME280;4288;48.484;10.024;2022-11-20T02:15:25;95049.16;;;14.77;73.13
8501;BME280;4288;48.484;10.024;2022-11-20T02:17:53;95047.66;;;14.76;73.12
8501;BME280;4288;48.484;10.024;2022-11-20T02:20:22;95043.84;;;14.74;72.96
8501;BME280;4288;48.484;10.024;2022-11-20T02:22:56;95046.19;;;14.72;72.94
8501;BME280;4288;48.484;10.024;2022-11-20T02:25:26;95053.50;;;14.71;73.05
8501;BME280;4288;48.484;10.024;2022-11-20T02:27:54;95060.00;;;14.74;73.21
8501;BME280;4288;48.484;10.024;2022-11-20T02:30:22;95054.63;;;14.74;73.14
8501;BME280;4288;48.484;10.024;2022-11-20T02:32:49;95053.84;;;14.73;73.32
8501;BME280;4288;48.484;10.024;2022-11-20T02:35:45;95047.69;;;14.73;73.16
8501;BME280;4288;48.484;10.024;2022-11-20T02:38:14;95050.81;;;14.71;72.96
8501;BME280;4288;48.484;10.024;2022-11-20T02:40:43;95056.53;;;14.73;73.25
8501;BME280;4288;48.484;10.024;2022-11-20T02:43:10;95053.09;;;14.73;73.13
8501;BME280;4288;48.484;10.024;2022-11-20T02:45:37;95056.19;;;14.71;73.16
8501;BME280;4288;48.484;10.024;2022-11-20T02:48:06;95052.75;;;14.71;73.19
8501;BME280;4288;48.484;10.024;2022-11-20T02:50:37;95053.50;;;14.71;73.19
8501;BME280;4288;48.484;10.024;2022-11-20T02:53:06;95057.44;;;14.67;73.09
8501;BME280;4288;48.484;10.024;2022-11-20T02:55:33;95058.53;;;14.69;73.07
8501;BME280;4288;48.484;10.024;2022-11-20T02:58:02;95060.47;;;14.69;73.14
8501;BME280;4288;48.484;10.024;2022-11-20T03:00:29;95050.91;;;14.68;73.17
8501;BME280;4288;48.484;10.024;2022-11-20T03:02:56;95069.72;;;14.68;73.20
8501;BME280;4288;48.484;10.024;2022-11-20T03:05:23;95053.59;;;14.68;73.16
8501;BME280;4288;48.484;10.024;2022-11-20T03:07:50;95056.28;;;14.68;73.17
8501;BME280;4288;48.484;10.024;2022-11-20T03:10:17;95052.06;;;14.67;73.21
8501;BME280;4288;48.484;10.024;2022-11-20T03:12:44;95052.06;;;14.67;73.24
8501;BME280;4288;48.484;10.024;2022-11-20T03:15:13;95046.34;;;14.65;73.11
8501;BME280;4288;48.484;10.024;2022-11-20T03:17:40;95051.72;;;14.65;73.16
8501;BME280;4288;48.484;10.024;2022-11-20T03:20:10;95040.22;;;14.64;73.09
8501;BME280;4288;48.484;10.024;2022-11-20T03:22:37;95049.03;;;14.65;73.17
8501;BME280;4288;48.484;10.024;2022-11-20T03:25:05;95049.88;;;14.62;73.10
8501;BME280;4288;48.484;10.024;2022-11-20T03:27:33;95055.59;;;14.64;73.14
8501;BME280;4288;48.484;10.024;2022-11-20T03:30:01;95045.25;;;14.62;72.91
8501;BME280;4288;48.484;10.024;2022-11-20T03:32:29;95041.81;;;14.62;73.08
8501;BME280;4288;48.484;10.024;2022-11-20T03:34:56;95042.56;;;14.62;73.04
8501;BME280;4288;48.484;10.024;2022-11-20T03:37:24;95042.56;;;14.62;72.98
8501;BME280;4288;48.484;10.024;2022-11-20T03:39:51;95039.53;;;14.60;73.08
8501;BME280;4288;48.484;10.024;2022-11-20T03:42:18;95038.00;;;14.59;73.33
8501;BME280;4288;48.484;10.024;2022-11-20T03:45:03;95046.06;;;14.59;73.12
8501;BME280;4288;48.484;10.024;2022-11-20T03:47:32;95047.59;;;14.60;73.09
8501;BME280;4288;48.484;10.024;2022-11-20T03:49:59;95041.03;;;14.61;73.03
8501;BME280;4288;48.484;10.024;2022-11-20T03:52:26;95033.41;;;14.60;73.08
8501;BME280;4288;48.484;10.024;2022-11-20T03:54:53;95034.56;;;14.59;73.07
8501;BME280;4288;48.484;10.024;2022-11-20T03:57:20;95036.50;;;14.58;73.01
8501;BME280;4288;48.484;10.024;2022-11-20T03:59:47;95035.75;;;14.58;73.09
8501;BME280;4288;48.484;10.024;2022-11-20T04:02:14;95034.97;;;14.57;73.11
8501;BME280;4288;48.484;10.024;2022-11-20T04:04:43;95033.06;;;14.58;73.20
8501;BME280;4288;48.484;10.024;2022-11-20T04:07:10;95049.19;;;14.58;73.11
8501;BME280;4288;48.484;10.024;2022-11-20T04:09:37;95047.69;;;14.57;73.15
8501;BME280;4288;48.484;10.024;2022-11-20T04:12:05;95052.28;;;14.56;72.92
8501;BME280;4288;48.484;10.024;2022-11-20T04:14:32;95045.38;;;14.55;73.29
8501;BME280;4288;48.484;10.024;2022-11-20T04:16:59;95048.84;;;14.56;73.19
8501;BME280;4288;48.484;10.024;2022-11-20T04:19:26;95046.56;;;14.54;73.04
8501;BME280;4288;48.484;10.024;2022-11-20T04:21:55;95054.66;;;14.54;73.02
8501;BME280;4288;48.484;10.024;2022-11-20T04:24:22;95056.56;;;14.54;73.03
8501;BME280;4288;48.484;10.024;2022-11-20T04:26:49;95057.00;;;14.52;73.12
8501;BME280;4288;48.484;10.024;2022-11-20T04:29:16;95050.84;;;14.52;73.10
8501;BME280;4288;48.484;10.024;2022-11-20T04:31:43;95050.84;;;14.52;73.16
8501;BME280;4288;48.484;10.024;2022-11-20T04:34:11;95048.56;;;14.50;73.08
8501;BME280;4288;48.484;10.024;2022-11-20T04:36:39;95052.03;;;14.51;73.10
8501;BME280;4288;48.484;10.024;2022-11-20T04:39:12;95060.84;;;14.51;73.25
8501;BME280;4288;48.484;10.024;2022-11-20T04:41:40;95055.13;;;14.49;73.12
8501;BME280;4288;48.484;10.024;2022-11-20T04:44:07;95055.13;;;14.49;73.05
8501;BME280;4288;48.484;10.024;2022-11-20T04:46:36;95049.00;;;14.49;73.22
8501;BME280;4288;48.484;10.024;2022-11-20T04:49:04;95057.81;;;14.49;73.06
8501;BME280;4288;48.484;10.024;2022-11-20T04:51:31;95049.06;;;14.45;73.02
8501;BME280;4288;48.484;10.024;2022-11-20T04:53:59;95062.09;;;14.47;73.02
8501;BME280;4288;48.484;10.024;2022-11-20T04:56:28;95060.19;;;14.47;73.10
8501;BME280;4288;48.484;10.024;2022-11-20T04:58:55;95054.03;;;14.47;73.09
8501;BME280;4288;48.484;10.024;2022-11-20T05:01:23;95054.03;;;14.47;73.10
8501;BME280;4288;48.484;10.024;2022-11-20T05:03:51;95047.13;;;14.46;73.07
8501;BME280;4288;48.484;10.024;2022-11-20T05:06:20;95039.91;;;14.43;72.93
8501;BME280;4288;48.484;10.024;2022-11-20T05:08:48;95045.28;;;14.43;73.20
8501;BME280;4288;48.484;10.024;2022-11-20T05:11:18;95055.63;;;14.44;73.20
8501;BME280;4288;48.484;10.024;2022-11-20T05:13:47;95053.69;;;14.45;73.11
8501;BME280;4288;48.484;10.024;2022-11-20T05:16:17;95049.81;;;14.46;73.10
8501;BME280;4288;48.484;10.024;2022-11-20T05:18:44;95062.91;;;14.44;73.04
8501;BME280;4288;48.484;10.024;2022-11-20T05:21:13;95069.81;;;14.45;73.11
8501;BME280;4288;48.484;10.024;2022-11-20T05:23:41;95055.28;;;14.42;73.03
8501;BME280;4288;48.484;10.024;2022-11-20T05:26:14;95054.50;;;14.42;73.18
8501;BME280;4288;48.484;10.024;2022-11-20T05:28:41;95051.06;;;14.41;73.15
8501;BME280;4288;48.484;10.024;2022-11-20T05:31:13;95053.06;;;14.37;73.33
8501;BME280;4288;48.484;10.024;2022-11-20T05:33:41;95051.06;;;14.41;73.17
8501;BME280;4288;48.484;10.024;2022-11-20T05:36:09;95048.38;;;14.41;73.14
8501;BME280;4288;48.484;10.024;2022-11-20T05:38:37;95049.13;;;14.42;73.12
8501;BME280;4288;48.484;10.024;2022-11-20T05:41:05;95054.94;;;14.40;73.03
8501;BME280;4288;48.484;10.024;2022-11-20T05:43:33;95052.25;;;14.40;73.01
8501;BME280;4288;48.484;10.024;2022-11-20T05:46:01;95048.03;;;14.39;73.10
8501;BME280;4288;48.484;10.024;2022-11-20T05:48:31;95053.00;;;14.41;72.93
8501;BME280;4288;48.484;10.024;2022-11-20T05:50:58;95048.03;;;14.39;73.03
8501;BME280;4288;48.484;10.024;2022-11-20T05:53:26;95041.56;;;14.37;73.03
8501;BME280;4288;48.484;10.024;2022-11-20T05:55:57;95044.59;;;14.39;73.00
8501;BME280;4288;48.484;10.024;2022-11-20T05:58:25;95048.44;;;14.38;73.01
8501;BME280;4288;48.484;10.024;2022-11-20T06:00:52;95051.13;;;14.38;73.13
8501;BME280;4288;48.484;10.024;2022-11-20T06:03:19;95047.69;;;14.37;73.07
8501;BME280;4288;48.484;10.024;2022-11-20T06:05:48;95049.63;;;14.37;72.97
8501;BME280;4288;48.484;10.024;2022-11-20T06:08:15;95046.94;;;14.37;72.99
8501;BME280;4288;48.484;10.024;2022-11-20T06:10:43;95053.47;;;14.36;73.06
8501;BME280;4288;48.484;10.024;2022-11-20T06:13:10;95050.78;;;14.36;73.03
8501;BME280;4288;48.484;10.024;2022-11-20T06:15:37;95044.66;;;14.35;73.01
8501;BME280;4288;48.484;10.024;2022-11-20T06:18:04;95048.50;;;14.34;73.13
8501;BME280;4288;48.484;10.024;2022-11-20T06:20:31;95043.56;;;14.33;73.14
8501;BME280;4288;48.484;10.024;2022-11-20T06:23:00;95048.50;;;14.34;73.08
8501;BME280;4288;48.484;10.024;2022-11-20T06:25:27;95049.69;;;14.33;72.98
8501;BME280;4288;48.484;10.024;2022-11-20T06:27:54;95047.00;;;14.33;72.93
8501;BME280;4288;48.484;10.024;2022-11-20T06:30:21;95042.38;;;14.34;73.05
8501;BME280;4288;48.484;10.024;2022-11-20T06:32:48;95047.00;;;14.33;73.07
8501;BME280;4288;48.484;10.024;2022-11-20T06:35:15;95048.94;;;14.33;73.04
8501;BME280;4288;48.484;10.024;2022-11-20T06:37:43;95052.03;;;14.31;73.21
8501;BME280;4288;48.484;10.024;2022-11-20T06:40:12;95059.34;;;14.31;73.09
8501;BME280;4288;48.484;10.024;2022-11-20T06:42:39;95054.72;;;14.31;73.03
8501;BME280;4288;48.484;10.024;2022-11-20T06:45:08;95066.25;;;14.32;73.03
8501;BME280;4288;48.484;10.024;2022-11-20T06:47:36;95065.50;;;14.31;73.04
8501;BME280;4288;48.484;10.024;2022-11-20T06:50:04;95063.97;;;14.30;73.13
8501;BME280;4288;48.484;10.024;2022-11-20T06:52:31;95065.91;;;14.30;73.14
8501;BME280;4288;48.484;10.024;2022-11-20T06:54:58;95063.22;;;14.30;73.03
8501;BME280;4288;48.484;10.024;2022-11-20T06:57:27;95065.13;;;14.29;73.01
8501;BME280;4288;48.484;10.024;2022-11-20T06:59:54;95070.53;;;14.29;73.08
8501;BME280;4288;48.484;10.024;2022-11-20T07:02:21;95071.28;;;14.30;73.20
8501;BME280;4288;48.484;10.024;2022-11-20T07:04:48;95079.34;;;14.30;72.93
8501;BME280;4288;48.484;10.024;2022-11-20T07:07:15;95080.50;;;14.28;72.96
8501;BME280;4288;48.484;10.024;2022-11-20T07:09:42;95087.06;;;14.27;73.05
8501;BME280;4288;48.484;10.024;2022-11-20T07:12:09;95085.13;;;14.28;73.07
8501;BME280;4288;48.484;10.024;2022-11-20T07:14:38;95087.81;;;14.28;73.08
8501;BME280;4288;48.484;10.024;2022-11-20T07:17:05;95087.81;;;14.28;73.07
8501;BME280;4288;48.484;10.024;2022-11-20T07:19:32;95092.03;;;14.29;73.05
8501;BME280;4288;48.484;10.024;2022-11-20T07:21:59;95092.44;;;14.27;73.13
8501;BME280;4288;48.484;10.024;2022-11-20T07:24:26;95101.63;;;14.26;73.06
8501;BME280;4288;48.484;10.024;2022-11-20T07:26:53;95100.88;;;14.26;72.98
8501;BME280;4288;48.484;10.024;2022-11-20T07:29:21;95106.25;;;14.26;73.04
8501;BME280;4288;48.484;10.024;2022-11-20T07:31:49;95108.19;;;14.25;73.01
8501;BME280;4288;48.484;10.024;2022-11-20T07:34:16;95100.13;;;14.25;73.04
8501;BME280;4288;48.484;10.024;2022-11-20T07:36:43;95102.81;;;14.25;73.20
8501;BME280;4288;48.484;10.024;2022-11-20T07:39:10;95104.75;;;14.25;73.15
8501;BME280;4288;48.484;10.024;2022-11-20T07:41:37;95107.44;;;14.25;73.16
8501;BME280;4288;48.484;10.024;2022-11-20T07:44:05;95105.50;;;14.25;73.09
8501;BME280;4288;48.484;10.024;2022-11-20T07:46:32;95110.88;;;14.25;73.11
8501;BME280;4288;48.484;10.024;2022-11-20T07:49:00;95105.91;;;14.24;73.04
8501;BME280;4288;48.484;10.024;2022-11-20T07:51:28;95107.84;;;14.23;73.23
8501;BME280;4288;48.484;10.024;2022-11-20T07:53:55;95104.41;;;14.23;73.24
8501;BME280;4288;48.484;10.024;2022-11-20T07:56:22;95105.16;;;14.23;73.21
8501;BME280;4288;48.484;10.024;2022-11-20T07:58:49;95104.41;;;14.23;73.13
8501;BME280;4288;48.484;10.024;2022-11-20T08:01:16;95100.16;;;14.22;73.19
8501;BME280;4288;48.484;10.024;2022-11-20T08:03:43;95114.38;;;14.22;73.13
8501;BME280;4288;48.484;10.024;2022-11-20T08:06:12;95111.69;;;14.22;73.27
8501;BME280;4288;48.484;10.024;2022-11-20T08:08:40;95117.84;;;14.23;73.14
8501;BME280;4288;48.484;10.024;2022-11-20T08:11:07;95121.69;;;14.22;73.05
8501;BME280;4288;48.484;10.024;2022-11-20T08:13:52;95116.72;;;14.20;73.11
8501;BME280;4288;48.484;10.024;2022-11-20T08:16:37;95115.56;;;14.21;73.29
8501;BME280;4288;48.484;10.024;2022-11-20T08:19:04;95122.84;;;14.21;73.21
8501;BME280;4288;48.484;10.024;2022-11-20T08:21:33;95115.56;;;14.21;73.22
8501;BME280;4288;48.484;10.024;2022-11-20T08:24:00;95110.56;;;14.20;73.37
8501;BME280;4288;48.484;10.024;2022-11-20T08:26:27;95115.22;;;14.19;73.29
8501;BME280;4288;48.484;10.024;2022-11-20T08:28:55;95119.41;;;14.20;73.27
8501;BME280;4288;48.484;10.024;2022-11-20T08:31:24;95108.66;;;14.20;73.31
8501;BME280;4288;48.484;10.024;2022-11-20T08:33:52;95107.88;;;14.20;73.14
8501;BME280;4288;48.484;10.024;2022-11-20T08:36:20;95118.63;;;14.20;73.35
8501;BME280;4288;48.484;10.024;2022-11-20T08:38:49;95115.94;;;14.20;73.23
8501;BME280;4288;48.484;10.024;2022-11-20T08:41:16;95115.94;;;14.20;73.15
8501;BME280;4288;48.484;10.024;2022-11-20T08:43:55;95116.38;;;14.18;73.07
8501;BME280;4288;48.484;10.024;2022-11-20T08:46:24;95122.09;;;14.20;73.05
8501;BME280;4288;48.484;10.024;2022-11-20T08:48:52;95114.03;;;14.20;73.33
8501;BME280;4288;48.484;10.024;2022-11-20T08:51:20;95119.00;;;14.22;73.36
8501;BME280;4288;48.484;10.024;2022-11-20T08:53:48;95117.47;;;14.21;73.19
8501;BME280;4288;48.484;10.024;2022-11-20T08:56:16;95117.47;;;14.21;73.07
8501;BME280;4288;48.484;10.024;2022-11-20T08:58:44;95114.03;;;14.20;73.13
8501;BME280;4288;48.484;10.024;2022-11-20T09:01:11;95112.88;;;14.21;73.11
8501;BME280;4288;48.484;10.024;2022-11-20T09:03:38;95120.94;;;14.21;73.07
8501;BME280;4288;48.484;10.024;2022-11-20T09:06:07;95118.63;;;14.20;73.17
8501;BME280;4288;48.484;10.024;2022-11-20T09:08:34;95105.63;;;14.18;73.07
8501;BME280;4288;48.484;10.024;2022-11-20T09:11:04;95113.63;;;14.22;73.01
8501;BME280;4288;48.484;10.024;2022-11-20T09:13:33;95112.47;;;14.23;73.10
8501;BME280;4288;48.484;10.024;2022-11-20T09:16:04;95107.50;;;14.21;72.97
8501;BME280;4288;48.484;10.024;2022-11-20T09:18:34;95115.16;;;14.23;73.05
8501;BME280;4288;48.484;10.024;2022-11-20T09:21:05;95114.72;;;14.24;73.11
8501;BME280;4288;48.484;10.024;2022-11-20T09:23:34;95119.34;;;14.24;73.05
8501;BME280;4288;48.484;10.024;2022-11-20T09:26:04;95109.78;;;14.23;72.96
8501;BME280;4288;48.484;10.024;2022-11-20T09:28:32;95108.66;;;14.20;73.15
8501;BME280;4288;48.484;10.024;2022-11-20T09:31:00;95115.91;;;14.23;72.97
8501;BME280;4288;48.484;10.024;2022-11-20T09:33:27;95108.66;;;14.20;73.17
8501;BME280;4288;48.484;10.024;2022-11-20T09:35:54;95110.94;;;14.22;73.00
8501;BME280;4288;48.484;10.024;2022-11-20T09:38:22;95110.94;;;14.22;73.07
8501;BME280;4288;48.484;10.024;2022-11-20T09:40:55;95107.50;;;14.21;73.11
8501;BME280;4288;48.484;10.024;2022-11-20T09:43:37;95113.63;;;14.22;73.08
8501;BME280;4288;48.484;10.024;2022-11-20T09:46:14;95105.56;;;14.22;72.90
8501;BME280;4288;48.484;10.024;2022-11-20T09:48:56;95101.00;;;14.19;72.86
8501;BME280;4288;48.484;10.024;2022-11-20T09:51:37;95113.63;;;14.22;72.99
8501;BME280;4288;48.484;10.024;2022-11-20T09:54:17;95112.09;;;14.21;72.93
8501;BME280;4288;48.484;10.024;2022-11-20T09:56:48;95112.09;;;14.21;72.98
8501;BME280;4288;48.484;10.024;2022-11-20T09:59:32;95110.19;;;14.21;72.98
8501;BME280;4288;48.484;10.024;2022-11-20T10:02:02;95110.19;;;14.21;72.96
8501;BME280;4288;48.484;10.024;2022-11-20T10:04:34;95111.34;;;14.20;72.83
8501;BME280;4288;48.484;10.024;2022-11-20T10:07:07;95111.75;;;14.19;72.80
8501;BME280;4288;48.484;10.024;2022-11-20T10:09:40;95115.56;;;14.21;72.99
8501;BME280;4288;48.484;10.024;2022-11-20T10:12:17;95103.34;;;14.17;72.87
8501;BME280;4288;48.484;10.024;2022-11-20T10:15:03;95105.97;;;14.20;73.01
8501;BME280;4288;48.484;10.024;2022-11-20T10:17:55;95114.78;;;14.21;72.93
8501;BME280;4288;48.484;10.024;2022-11-20T10:20:32;95105.97;;;14.20;72.97
8501;BME280;4288;48.484;10.024;2022-11-20T10:23:30;95103.28;;;14.20;73.00
8501;BME280;4288;48.484;10.024;2022-11-20T10:26:03;95095.22;;;14.20;72.94
8501;BME280;4288;48.484;10.024;2022-11-20T10:28:53;95094.78;;;14.22;72.96
8501;BME280;4288;48.484;10.024;2022-11-20T10:31:31;95101.34;;;14.21;73.21
8501;BME280;4288;48.484;10.024;2022-11-20T10:34:05;95098.25;;;14.22;72.98
8501;BME280;4288;48.484;10.024;2022-11-20T10:36:38;95093.72;;;14.19;73.02
8501;BME280;4288;48.484;10.024;2022-11-20T10:39:18;95104.81;;;14.21;72.76
8501;BME280;4288;48.484;10.024;2022-11-20T10:41:52;95100.16;;;14.22;72.89
8501;BME280;4288;48.484;10.024;2022-11-20T10:44:21;95105.56;;;14.22;72.99
8501;BME280;4288;48.484;10.024;2022-11-20T10:47:09;95102.50;;;14.20;73.02
8501;BME280;4288;48.484;10.024;2022-11-20T10:49:40;95114.03;;;14.20;72.86
8501;BME280;4288;48.484;10.024;2022-11-20T10:52:15;95108.66;;;14.20;72.87
8501;BME280;4288;48.484;10.024;2022-11-20T10:54:50;95109.06;;;14.19;73.00
8501;BME280;4288;48.484;10.024;2022-11-20T10:57:32;95102.50;;;14.20;73.03
8501;BME280;4288;48.484;10.024;2022-11-20T11:00:06;95097.91;;;14.20;72.96
8501;BME280;4288;48.484;10.024;2022-11-20T11:02:40;95097.91;;;14.20;72.96
8501;BME280;4288;48.484;10.024;2022-11-20T11:05:36;95087.16;;;14.20;73.00
8501;BME280;4288;48.484;10.024;2022-11-20T11:08:10;95092.53;;;14.20;73.17
8501;BME280;4288;48.484;10.024;2022-11-20T11:10:45;95092.53;;;14.20;72.82
8501;BME280;4288;48.484;10.024;2022-11-20T11:13:21;95084.47;;;14.20;73.01
8501;BME280;4288;48.484;10.024;2022-11-20T11:15:49;95089.84;;;14.20;73.09
8501;BME280;4288;48.484;10.024;2022-11-20T11:18:25;95087.91;;;14.21;73.26
8501;BME280;4288;48.484;10.024;2022-11-20T11:20:54;95076.41;;;14.20;73.11
8501;BME280;4288;48.484;10.024;2022-11-20T11:23:34;95080.66;;;14.18;73.04
8501;BME280;4288;48.484;10.024;2022-11-20T11:26:04;95072.56;;;14.21;73.14
8501;BME280;4288;48.484;10.024;2022-11-20T11:28:32;95072.59;;;14.18;73.15
8501;BME280;4288;48.484;10.024;2022-11-20T11:30:59;95072.22;;;14.19;73.28
8501;BME280;4288;48.484;10.024;2022-11-20T11:33:29;95076.41;;;14.20;73.34
8501;BME280;4288;48.484;10.024;2022-11-20T11:36:01;95069.91;;;14.18;73.12
8501;BME280;4288;48.484;10.024;2022-11-20T11:38:34;95068.00;;;14.18;73.30
8501;BME280;4288;48.484;10.024;2022-11-20T11:41:03;95064.16;;;14.19;73.32
8501;BME280;4288;48.484;10.024;2022-11-20T11:43:34;95068.34;;;14.20;73.28
8501;BME280;4288;48.484;10.024;2022-11-20T11:46:30;95051.88;;;14.18;73.46
8501;BME280;4288;48.484;10.024;2022-11-20T11:49:08;95056.81;;;14.20;73.28
8501;BME280;4288;48.484;10.024;2022-11-20T11:51:58;95048.75;;;14.20;73.35
8501;BME280;4288;48.484;10.024;2022-11-20T11:54:32;95047.69;;;14.17;73.31
8501;BME280;4288;48.484;10.024;2022-11-20T11:57:10;95044.22;;;14.17;73.32
8501;BME280;4288;48.484;10.024;2022-11-20T11:59:52;95042.66;;;14.19;73.39
8501;BME280;4288;48.484;10.024;2022-11-20T12:02:35;95042.66;;;14.19;73.43
8501;BME280;4288;48.484;10.024;2022-11-20T12:05:16;95039.63;;;14.17;73.19
8501;BME280;4288;48.484;10.024;2022-11-20T12:07:47;95049.94;;;14.19;73.45
8501;BME280;4288;48.484;10.024;2022-11-20T12:10:22;95033.91;;;14.15;73.50
8501;BME280;4288;48.484;10.024;2022-11-20T12:13:04;95046.50;;;14.18;73.38
8501;BME280;4288;48.484;10.024;2022-11-20T12:15:37;95036.94;;;14.17;73.33
8501;BME280;4288;48.484;10.024;2022-11-20T12:18:09;95035.75;;;14.18;73.57
8501;BME280;4288;48.484;10.024;2022-11-20T12:20:52;95043.81;;;14.18;73.47
8501;BME280;4288;48.484;10.024;2022-11-20T12:23:28;95029.59;;;14.18;73.60
8501;BME280;4288;48.484;10.024;2022-11-20T12:26:00;95033.06;;;14.18;73.54
8501;BME280;4288;48.484;10.024;2022-11-20T12:28:44;95033.47;;;14.17;73.58
8501;BME280;4288;48.484;10.024;2022-11-20T12:31:46;95036.50;;;14.19;73.35
8501;BME280;4288;48.484;10.024;2022-11-20T12:34:32;95030.38;;;14.18;73.50
8501;BME280;4288;48.484;10.024;2022-11-20T12:37:17;95031.91;;;14.19;73.52
8501;BME280;4288;48.484;10.024;2022-11-20T12:39:49;95029.59;;;14.18;73.53
8501;BME280;4288;48.484;10.024;2022-11-20T12:42:52;95026.53;;;14.19;73.50
8501;BME280;4288;48.484;10.024;2022-11-20T12:46:22;95033.81;;;14.19;73.60
8501;BME280;4288;48.484;10.024;2022-11-20T12:49:02;95031.91;;;14.19;73.52
8501;BME280;4288;48.484;10.024;2022-11-20T12:51:51;95033.47;;;14.17;73.39
8501;BME280;4288;48.484;10.024;2022-11-20T12:54:41;95034.59;;;14.19;73.58
8501;BME280;4288;48.484;10.024;2022-11-20T12:57:18;95030.72;;;14.20;73.45
8501;BME280;4288;48.484;10.024;2022-11-20T13:00:07;95022.66;;;14.20;73.55
8501;BME280;4288;48.484;10.024;2022-11-20T13:02:46;95021.16;;;14.19;73.54
8501;BME280;4288;48.484;10.024;2022-11-20T13:05:30;95013.09;;;14.19;73.44
8501;BME280;4288;48.484;10.024;2022-11-20T13:07:58;95008.44;;;14.20;73.52
8501;BME280;4288;48.484;10.024;2022-11-20T13:10:35;95005.41;;;14.18;73.55
8501;BME280;4288;48.484;10.024;2022-11-20T13:13:14;95016.50;;;14.20;73.61
8501;BME280;4288;48.484;10.024;2022-11-20T13:15:51;95002.34;;;14.19;73.59
8501;BME280;4288;48.484;10.024;2022-11-20T13:18:21;95004.34;;;14.15;73.42
8501;BME280;4288;48.484;10.024;2022-11-20T13:20:48;95019.19;;;14.20;73.54
8501;BME280;4288;48.484;10.024;2022-11-20T13:23:26;95008.88;;;14.18;73.65
8501;BME280;4288;48.484;10.024;2022-11-20T13:26:13;95011.56;;;14.18;73.55
8501;BME280;4288;48.484;10.024;2022-11-20T13:28:42;95005.03;;;14.19;73.65
8501;BME280;4288;48.484;10.024;2022-11-20T13:31:24;95006.53;;;14.20;73.69